Time;durP1;ratioP1;P1;durP2;ratioP2;P2;SDS_P1;SDS_P2;PMS_P1;PMS_P2;Temp;Humidity;BMP_temperature;BMP_pressure;BME280_temperature;BME280_humidity;BME280_pressure;Samples;Min_cycle;Max_cycle;Signal;HPM_P1;HPM_P2
2022/04/15 00:01:43;;;;;;;67.40;34.33;;;6.70;99.90;;;;;;5116025;28;20462;-52
2022/04/15 00:04:09;;;;;;;68.68;32.47;;;6.60;99.90;;;;;;5115049;28;20027;-52
2022/04/15 00:06:34;;;;;;;60.30;30.52;;;6.60;99.90;;;;;;5116123;28;20118;-52
2022/04/15 00:09:01;;;;;;;60.10;29.88;;;6.50;99.90;;;;;;5116113;28;20034;-52
2022/04/15 00:11:29;;;;;;;58.05;29.38;;;6.30;99.90;;;;;;5116024;28;20089;-52
2022/04/15 00:13:55;;;;;;;68.18;31.40;;;6.30;99.90;;;;;;5116007;28;20115;-52
2022/04/15 00:16:21;;;;;;;75.10;32.65;;;6.20;99.90;;;;;;5115883;28;20054;-52
2022/04/15 00:18:47;;;;;;;60.58;30.92;;;6.20;99.90;;;;;;5115823;28;20052;-52
2022/04/15 00:21:13;;;;;;;67.05;30.95;;;6.10;99.90;;;;;;5116010;28;20497;-52
2022/04/15 00:23:39;;;;;;;63.17;31.95;;;6.10;99.90;;;;;;5115600;28;20027;-52
2022/04/15 00:26:06;;;;;;;64.80;30.73;;;6.10;99.90;;;;;;5115979;28;20035;-52
2022/04/15 00:28:32;;;;;;;65.60;31.25;;;6.20;99.90;;;;;;5115906;28;20035;-52
2022/04/15 00:30:58;;;;;;;67.20;31.77;;;6.20;99.90;;;;;;5115632;28;20045;-52
2022/04/15 00:33:24;;;;;;;62.58;30.83;;;6.20;99.90;;;;;;5115752;28;20027;-52
2022/04/15 00:35:50;;;;;;;61.80;29.80;;;6.20;99.90;;;;;;5115607;28;20039;-52
2022/04/15 00:38:16;;;;;;;60.55;30.33;;;6.10;99.90;;;;;;5115593;28;20031;-52
2022/04/15 00:40:43;;;;;;;59.55;30.50;;;6.10;99.90;;;;;;5115478;28;20058;-52
2022/04/15 00:43:09;;;;;;;62.05;29.23;;;6.30;99.90;;;;;;5115585;28;20065;-52
2022/04/15 00:45:35;;;;;;;82.45;34.80;;;6.30;99.90;;;;;;5115412;28;20489;-52
2022/04/15 00:48:01;;;;;;;70.53;30.60;;;6.20;99.90;;;;;;5115563;28;20473;-52
2022/04/15 00:50:35;;;;;;;72.20;33.40;;;6.10;99.90;;;;;;5115993;28;20028;-52
2022/04/15 00:53:07;;;;;;;60.70;30.55;;;6.00;99.90;;;;;;5115392;28;20032;-52
2022/04/15 00:55:33;;;;;;;57.38;28.77;;;5.90;99.90;;;;;;5115298;28;20024;-52
2022/04/15 00:58:02;;;;;;;64.35;31.25;;;5.80;99.90;;;;;;5115314;28;20051;-52
2022/04/15 01:00:31;;;;;;;58.85;28.20;;;5.70;99.90;;;;;;5115143;28;20420;-52
2022/04/15 01:02:58;;;;;;;57.42;27.30;;;5.70;99.90;;;;;;5115294;28;20034;-52
2022/04/15 01:05:25;;;;;;;87.28;34.25;;;5.70;99.90;;;;;;5115169;28;20038;-52
2022/04/15 01:07:55;;;;;;;65.15;29.63;;;5.80;99.90;;;;;;5114876;28;20035;-52
2022/04/15 01:10:22;;;;;;;74.78;33.08;;;5.70;99.90;;;;;;5114985;28;20024;-52
2022/04/15 01:12:54;;;;;;;65.75;31.25;;;5.70;99.90;;;;;;5114801;28;20153;-52
2022/04/15 01:15:22;;;;;;;83.45;33.92;;;5.70;99.90;;;;;;5114714;28;20035;-52
2022/04/15 01:17:48;;;;;;;66.13;31.20;;;5.70;99.90;;;;;;5114592;28;20055;-52
2022/04/15 01:20:14;;;;;;;57.67;28.90;;;5.70;99.90;;;;;;5114960;28;20024;-52
2022/04/15 01:22:46;;;;;;;58.60;29.20;;;5.70;99.90;;;;;;5114632;28;20030;-52
2022/04/15 01:25:14;;;;;;;82.68;35.95;;;5.80;99.90;;;;;;5114866;28;20030;-51
2022/04/15 01:27:46;;;;;;;71.05;33.33;;;5.70;99.90;;;;;;5114570;28;20037;-52
2022/04/15 01:30:17;;;;;;;69.05;31.40;;;5.70;99.90;;;;;;5114636;28;20035;-52
2022/04/15 01:32:44;;;;;;;62.28;29.15;;;5.70;99.90;;;;;;5114516;28;20020;-52
2022/04/15 01:35:12;;;;;;;64.45;29.13;;;5.60;99.90;;;;;;5114679;28;20031;-52
2022/04/15 01:37:39;;;;;;;61.47;28.58;;;5.50;99.90;;;;;;5114257;28;20038;-52
2022/04/15 01:40:07;;;;;;;59.40;29.17;;;5.40;99.90;;;;;;5114761;28;20144;-52
2022/04/15 01:42:34;;;;;;;55.22;25.40;;;5.40;99.90;;;;;;5114528;28;20027;-52
2022/04/15 01:45:01;;;;;;;51.42;25.73;;;5.40;99.90;;;;;;5114457;28;20047;-52
2022/04/15 01:47:27;;;;;;;53.88;25.70;;;5.30;99.90;;;;;;5114658;28;20038;-52
2022/04/15 01:49:53;;;;;;;56.20;27.13;;;5.20;99.90;;;;;;5114223;28;20089;-52
2022/04/15 01:52:20;;;;;;;54.22;26.45;;;5.20;99.90;;;;;;5114721;28;20035;-52
2022/04/15 01:54:46;;;;;;;51.38;25.83;;;5.10;99.90;;;;;;5114353;28;20028;-52
2022/04/15 01:57:13;;;;;;;68.28;27.23;;;5.10;99.90;;;;;;5114298;28;20031;-52
2022/04/15 01:59:40;;;;;;;55.83;25.52;;;5.10;99.90;;;;;;5114213;28;20475;-52
2022/04/15 02:02:06;;;;;;;55.78;25.75;;;5.00;99.90;;;;;;5114558;28;20026;-52
2022/04/15 02:04:33;;;;;;;67.75;28.45;;;4.90;99.90;;;;;;5113947;28;20039;-51
2022/04/15 02:06:59;;;;;;;58.47;25.13;;;4.90;99.90;;;;;;5114403;28;20048;-52
2022/04/15 02:09:26;;;;;;;51.33;24.25;;;4.90;99.90;;;;;;5114373;28;20106;-52
2022/04/15 02:11:52;;;;;;;51.33;25.40;;;4.80;99.90;;;;;;5114114;28;20374;-52
2022/04/15 02:14:19;;;;;;;51.10;23.15;;;4.80;99.90;;;;;;5114259;28;20027;-52
2022/04/15 02:16:48;;;;;;;48.55;23.20;;;4.80;99.90;;;;;;5114046;28;20052;-52
2022/04/15 02:19:14;;;;;;;47.08;24.13;;;4.70;99.90;;;;;;5114123;28;20056;-52
2022/04/15 02:21:40;;;;;;;45.25;22.52;;;4.70;99.90;;;;;;5114002;28;20028;-52
2022/04/15 02:24:06;;;;;;;45.75;23.88;;;4.70;99.90;;;;;;5114298;28;20027;-52
2022/04/15 02:26:33;;;;;;;49.38;24.08;;;4.70;99.90;;;;;;5114079;28;20027;-51
2022/04/15 02:29:00;;;;;;;50.45;24.52;;;4.70;99.90;;;;;;5118050;28;20094;-52
2022/04/15 02:31:26;;;;;;;51.03;23.70;;;4.70;99.90;;;;;;5118247;28;20070;-52
2022/04/15 02:33:52;;;;;;;47.33;24.33;;;4.60;99.90;;;;;;5117826;28;20031;-52
2022/04/15 02:36:18;;;;;;;46.28;21.90;;;4.60;99.90;;;;;;5118103;28;20036;-52
2022/04/15 02:38:45;;;;;;;47.70;21.98;;;4.60;99.90;;;;;;5114309;28;20032;-52
2022/04/15 02:41:11;;;;;;;50.75;25.58;;;4.50;99.90;;;;;;5086093;28;20056;-52
2022/04/15 02:43:38;;;;;;;49.20;23.88;;;4.50;99.90;;;;;;5089124;28;20386;-52
2022/04/15 02:46:09;;;;;;;46.20;23.52;;;4.50;99.90;;;;;;5089057;28;20394;-52
2022/04/15 02:48:36;;;;;;;44.60;23.05;;;4.50;99.90;;;;;;5086732;28;20032;-52
2022/04/15 02:51:02;;;;;;;45.63;22.38;;;4.40;99.90;;;;;;5077264;28;20474;-52
2022/04/15 02:53:30;;;;;;;45.30;22.42;;;4.50;99.90;;;;;;5076923;28;20494;-52
2022/04/15 02:55:57;;;;;;;47.53;22.13;;;4.50;99.90;;;;;;5076950;28;20040;-52
2022/04/15 02:58:23;;;;;;;40.35;21.60;;;4.50;99.90;;;;;;5076891;28;20051;-52
2022/04/15 03:00:49;;;;;;;43.65;21.73;;;4.60;99.90;;;;;;5076665;28;20086;-51
2022/04/15 03:03:15;;;;;;;43.20;22.05;;;4.60;99.90;;;;;;5077038;28;20020;-52
2022/04/15 03:05:42;;;;;;;52.75;22.65;;;4.70;99.90;;;;;;5076525;28;20035;-52
2022/04/15 03:08:09;;;;;;;42.55;21.40;;;4.70;99.90;;;;;;5076753;28;20032;-51
2022/04/15 03:10:35;;;;;;;40.15;21.10;;;4.70;99.90;;;;;;5076477;28;20028;-52
2022/04/15 03:13:02;;;;;;;41.95;20.83;;;4.70;99.90;;;;;;5076487;28;20036;-52
2022/04/15 03:15:28;;;;;;;44.92;20.80;;;4.70;99.90;;;;;;5076743;28;20474;-52
2022/04/15 03:17:54;;;;;;;36.78;18.73;;;4.60;99.90;;;;;;5076262;28;20128;-51
2022/04/15 03:20:21;;;;;;;36.88;18.33;;;4.60;99.90;;;;;;5076729;28;20423;-52
2022/04/15 03:22:47;;;;;;;36.97;18.23;;;4.50;99.90;;;;;;5076169;28;20383;-52
2022/04/15 03:25:17;;;;;;;37.47;18.35;;;4.60;99.90;;;;;;5076562;28;20084;-52
2022/04/15 03:27:43;;;;;;;35.50;18.65;;;4.60;99.90;;;;;;5076277;28;20100;-52
2022/04/15 03:30:11;;;;;;;38.08;18.25;;;4.60;99.90;;;;;;5076222;28;20128;-51
2022/04/15 03:32:46;;;;;;;39.17;20.00;;;4.70;99.90;;;;;;5076221;28;20034;-52
2022/04/15 03:35:13;;;;;;;40.60;18.85;;;4.70;99.90;;;;;;5076255;28;20475;-52
2022/04/15 03:37:39;;;;;;;37.17;19.23;;;4.60;99.90;;;;;;5075771;28;20036;-52
2022/04/15 03:40:06;;;;;;;41.20;20.30;;;4.60;99.90;;;;;;5076244;28;20382;-52
2022/04/15 03:42:49;;;;;;;40.60;19.85;;;4.50;99.90;;;;;;5076003;28;20074;-51
2022/04/15 03:45:18;;;;;;;54.67;20.73;;;4.50;99.90;;;;;;5076079;28;20028;-52
2022/04/15 03:47:48;;;;;;;50.60;20.73;;;4.50;99.90;;;;;;5075816;28;20478;-52
2022/04/15 03:50:15;;;;;;;42.78;20.42;;;4.50;99.90;;;;;;5076076;28;20466;-52
2022/04/15 03:52:44;;;;;;;42.92;18.77;;;4.50;99.90;;;;;;5075599;28;20386;-52
2022/04/15 03:55:11;;;;;;;42.97;20.10;;;4.40;99.90;;;;;;5075983;28;20032;-52
2022/04/15 03:57:38;;;;;;;49.30;19.63;;;4.40;99.90;;;;;;5075405;28;20315;-52
2022/04/15 04:00:09;;;;;;;58.90;21.98;;;4.30;99.90;;;;;;5075864;28;20025;-52
2022/04/15 04:02:35;;;;;;;;;;;4.20;99.90;;;;;;5076359;28;20112;-51
2022/04/15 04:05:01;;;;;;;56.70;29.58;;;4.20;99.90;;;;;;5075809;28;19943;-52
2022/04/15 04:07:27;;;;;;;72.88;36.35;;;4.20;99.90;;;;;;5075508;28;20020;-52
2022/04/15 04:09:54;;;;;;;50.88;24.75;;;4.20;99.90;;;;;;5075464;28;20153;-51
2022/04/15 04:12:20;;;;;;;40.55;22.25;;;4.20;99.90;;;;;;5075432;28;20025;-52
2022/04/15 04:14:46;;;;;;;51.15;22.40;;;4.20;99.90;;;;;;5075280;28;20024;-52
2022/04/15 04:17:12;;;;;;;61.58;27.33;;;4.10;99.90;;;;;;5075337;28;20048;-52
2022/04/15 04:19:38;;;;;;;55.35;25.58;;;4.10;99.90;;;;;;5074937;28;20355;-52
2022/04/15 04:22:04;;;;;;;44.00;21.52;;;4.20;99.90;;;;;;5075392;28;20478;-52
2022/04/15 04:24:30;;;;;;;54.55;24.27;;;4.10;99.90;;;;;;5075296;28;20032;-51
2022/04/15 04:26:56;;;;;;;67.95;28.35;;;4.20;99.90;;;;;;5075163;28;20029;-52
2022/04/15 04:29:22;;;;;;;74.07;31.98;;;4.20;99.90;;;;;;5075207;28;20086;-51
2022/04/15 04:31:48;;;;;;;57.33;26.85;;;4.30;99.90;;;;;;5075018;28;20024;-52
2022/04/15 04:34:14;;;;;;;67.03;27.55;;;4.30;99.90;;;;;;5074912;28;20021;-51
2022/04/15 04:36:40;;;;;;;66.35;28.48;;;4.30;99.90;;;;;;5074775;28;20039;-51
2022/04/15 04:39:09;;;;;;;69.22;30.75;;;4.40;99.90;;;;;;5075004;28;20381;-52
2022/04/15 04:41:37;;;;;;;72.93;27.90;;;4.40;99.90;;;;;;5074670;28;20112;-52
2022/04/15 04:44:04;;;;;;;69.53;30.08;;;4.50;99.90;;;;;;5075063;28;20020;-52
2022/04/15 04:46:30;;;;;;;73.45;30.25;;;4.60;99.90;;;;;;5074590;28;20102;-51
2022/04/15 04:48:56;;;;;;;75.28;30.45;;;4.60;99.90;;;;;;5074514;28;20533;-52
2022/04/15 04:51:23;;;;;;;84.40;34.13;;;4.70;99.90;;;;;;5074120;28;20501;-52
2022/04/15 04:53:49;;;;;;;112.45;43.35;;;4.80;99.90;;;;;;5074519;28;20028;-52
2022/04/15 04:56:15;;;;;;;98.38;37.53;;;5.00;99.90;;;;;;5075222;28;20580;-52
2022/04/15 04:58:41;;;;;;;137.50;52.15;;;5.10;99.90;;;;;;5074351;28;20038;-52
2022/04/15 05:01:08;;;;;;;135.23;53.50;;;5.20;99.90;;;;;;5074535;28;20039;-52
2022/04/15 05:03:34;;;;;;;100.97;41.50;;;5.40;99.90;;;;;;5074301;28;20063;-52
2022/04/15 05:05:59;;;;;;;79.72;38.25;;;5.60;99.90;;;;;;5074177;28;20024;-52
2022/04/15 05:08:26;;;;;;;92.00;40.25;;;5.70;99.90;;;;;;5074535;28;20509;-52
2022/04/15 05:10:51;;;;;;;92.97;38.97;;;5.90;99.90;;;;;;5074173;28;20028;-54
2022/04/15 05:13:17;;;;;;;101.50;40.45;;;6.00;99.90;;;;;;5074329;28;20036;-52
2022/04/15 05:15:43;;;;;;;113.28;42.28;;;6.20;99.90;;;;;;5074243;28;20090;-52
2022/04/15 05:18:09;;;;;;;87.00;38.17;;;6.40;99.90;;;;;;5072523;28;20050;-52
2022/04/15 05:20:37;;;;;;;96.05;41.90;;;6.50;99.90;;;;;;5074027;28;20513;-53
2022/04/15 05:23:03;;;;;;;106.97;46.95;;;6.60;99.90;;;;;;5074465;28;20055;-52
2022/04/15 05:25:29;;;;;;;96.55;42.65;;;6.80;99.90;;;;;;5074134;28;20021;-52
2022/04/15 05:27:58;;;;;;;74.22;35.30;;;6.90;99.90;;;;;;5039472;28;20035;-52
2022/04/15 05:30:25;;;;;;;80.90;36.53;;;7.20;99.90;;;;;;5080742;28;20064;-52
2022/04/15 05:32:51;;;;;;;86.20;35.15;;;7.40;99.90;;;;;;5093874;28;20524;-53
2022/04/15 05:35:17;;;;;;;79.50;35.58;;;7.60;99.90;;;;;;5094409;28;20032;-52
2022/04/15 05:37:43;;;;;;;63.53;30.85;;;7.80;99.90;;;;;;5093542;28;20020;-52
2022/04/15 05:40:10;;;;;;;62.65;31.52;;;8.00;99.90;;;;;;5094246;28;20046;-53
2022/04/15 05:42:35;;;;;;;66.93;31.63;;;8.20;99.90;;;;;;5075821;28;20071;-52
2022/04/15 05:45:01;;;;;;;73.25;29.98;;;8.40;99.90;;;;;;5093828;28;20067;-53
2022/04/15 05:47:28;;;;;;;64.63;29.48;;;8.70;99.90;;;;;;5093947;28;20028;-52
2022/04/15 05:49:54;;;;;;;66.60;32.28;;;8.90;99.90;;;;;;5093770;28;20028;-52
2022/04/15 05:52:19;;;;;;;79.40;31.42;;;9.20;99.90;;;;;;5093770;28;20428;-52
2022/04/15 05:54:46;;;;;;;70.63;32.05;;;9.40;99.90;;;;;;5093982;28;20032;-53
2022/04/15 05:57:12;;;;;;;65.30;29.77;;;9.70;99.90;;;;;;5092587;28;20075;-53
2022/04/15 05:59:38;;;;;;;67.45;30.15;;;9.90;99.90;;;;;;5093457;28;20076;-53
2022/04/15 06:02:05;;;;;;;69.63;31.55;;;10.20;99.90;;;;;;5094468;28;20059;-52
2022/04/15 06:04:31;;;;;;;83.85;31.58;;;10.40;99.90;;;;;;5098195;28;20058;-52
2022/04/15 06:06:57;;;;;;;63.45;32.45;;;10.70;99.90;;;;;;5097841;28;20462;-53
2022/04/15 06:09:22;;;;;;;74.28;34.58;;;10.80;99.90;;;;;;5097865;28;20023;-53
2022/04/15 06:11:52;;;;;;;78.47;33.72;;;10.90;99.90;;;;;;5097687;28;20104;-53
2022/04/15 06:14:21;;;;;;;81.85;32.63;;;11.10;99.90;;;;;;5097907;28;20032;-53
2022/04/15 06:16:49;;;;;;;77.88;33.75;;;11.30;99.90;;;;;;5097625;28;20068;-53
2022/04/15 06:19:15;;;;;;;77.97;34.22;;;11.50;99.90;;;;;;5097657;28;20028;-53
2022/04/15 06:21:41;;;;;;;70.88;31.17;;;11.70;99.90;;;;;;5097316;28;20028;-53
2022/04/15 06:24:08;;;;;;;73.57;32.13;;;11.90;99.90;;;;;;5097893;28;20512;-52
2022/04/15 06:26:35;;;;;;;79.30;34.85;;;12.10;99.90;;;;;;5097280;28;20480;-53
2022/04/15 06:29:01;;;;;;;97.55;39.33;;;12.10;98.80;;;;;;5097331;28;20043;-53
2022/04/15 06:31:27;;;;;;;92.18;37.40;;;12.10;98.50;;;;;;5097639;28;20032;-53
2022/04/15 06:33:53;;;;;;;104.03;41.95;;;12.10;98.40;;;;;;5097511;28;20028;-53
2022/04/15 06:36:22;;;;;;;91.75;38.28;;;12.20;99.50;;;;;;5097309;28;20029;-53
2022/04/15 06:38:48;;;;;;;89.28;41.40;;;12.30;99.90;;;;;;5097195;28;20109;-53
2022/04/15 06:41:14;;;;;;;91.15;41.53;;;12.40;97.30;;;;;;5097337;28;20020;-53
2022/04/15 06:43:40;;;;;;;94.85;43.35;;;12.50;97.70;;;;;;5097015;28;20402;-53
2022/04/15 06:46:06;;;;;;;96.80;43.00;;;12.80;97.70;;;;;;5095970;28;20082;-53
2022/04/15 06:48:32;;;;;;;95.80;39.30;;;13.20;97.40;;;;;;5096934;28;20087;-53
2022/04/15 06:50:58;;;;;;;79.90;36.63;;;13.40;95.50;;;;;;5096470;28;20127;-53
2022/04/15 06:53:24;;;;;;;74.05;34.85;;;13.60;94.50;;;;;;5097311;28;20065;-53
2022/04/15 06:55:51;;;;;;;70.50;31.08;;;13.80;95.50;;;;;;5097057;28;20044;-53
2022/04/15 06:58:17;;;;;;;62.80;30.73;;;14.20;94.90;;;;;;5096713;28;20431;-53
2022/04/15 07:00:44;;;;;;;76.15;33.40;;;14.60;92.40;;;;;;5096810;28;20020;-53
2022/04/15 07:03:10;;;;;;;70.78;31.88;;;14.80;86.80;;;;;;5097041;28;20412;-53
2022/04/15 07:05:37;;;;;;;77.55;31.77;;;15.30;86.10;;;;;;5096661;28;20047;-53
2022/04/15 07:08:03;;;;;;;68.80;30.20;;;15.50;76.20;;;;;;5078919;28;20036;-53
2022/04/15 07:10:29;;;;;;;74.15;31.27;;;16.00;82.40;;;;;;5095693;28;20111;-53
2022/04/15 07:12:56;;;;;;;57.60;28.73;;;16.30;78.70;;;;;;5095042;28;20139;-53
2022/04/15 07:15:24;;;;;;;70.15;28.65;;;16.60;76.50;;;;;;5096338;28;20112;-53
2022/04/15 07:17:50;;;;;;;63.05;29.45;;;17.00;65.10;;;;;;5095548;28;20044;-53
2022/04/15 07:20:16;;;;;;;64.68;27.45;;;17.30;63.50;;;;;;5095961;28;20024;-53
2022/04/15 07:22:42;;;;;;;62.17;28.17;;;17.60;60.60;;;;;;5089638;28;20035;-53
2022/04/15 07:25:08;;;;;;;52.95;25.70;;;17.80;59.60;;;;;;5096205;28;20058;-53
2022/04/15 07:27:35;;;;;;;54.75;25.27;;;18.10;54.40;;;;;;5088016;28;20028;-53
2022/04/15 07:30:01;;;;;;;76.82;28.55;;;17.80;57.00;;;;;;5096226;28;20481;-53
2022/04/15 07:32:29;;;;;;;53.05;24.02;;;18.20;55.00;;;;;;5096378;28;20111;-53
2022/04/15 07:34:55;;;;;;;53.72;22.88;;;18.30;53.30;;;;;;5096034;28;20040;-53
2022/04/15 07:37:22;;;;;;;67.38;25.38;;;18.70;51.70;;;;;;5096539;28;20028;-53
2022/04/15 07:39:48;;;;;;;52.95;24.02;;;19.00;52.00;;;;;;5096194;28;20036;-53
2022/04/15 07:42:14;;;;;;;48.83;21.13;;;19.10;50.10;;;;;;5095349;28;20046;-53
2022/04/15 07:44:41;;;;;;;59.35;23.73;;;19.40;47.80;;;;;;5094628;28;20110;-53
2022/04/15 07:47:08;;;;;;;36.78;17.67;;;19.90;48.50;;;;;;5095718;28;20371;-54
2022/04/15 07:49:34;;;;;;;44.78;19.02;;;20.20;46.00;;;;;;5095748;28;20107;-54
2022/04/15 07:52:02;;;;;;;40.47;20.63;;;20.50;44.80;;;;;;5096042;28;20043;-54
2022/04/15 07:54:28;;;;;;;45.85;23.60;;;20.70;45.00;;;;;;5095148;28;20036;-54
2022/04/15 07:56:54;;;;;;;40.97;22.88;;;20.70;45.70;;;;;;5095841;28;20506;-54
2022/04/15 07:59:20;;;;;;;37.63;20.02;;;20.90;45.60;;;;;;5095706;28;20055;-53
2022/04/15 08:01:46;;;;;;;42.17;18.30;;;21.00;45.50;;;;;;5095739;28;20024;-54
2022/04/15 08:04:12;;;;;;;37.13;20.75;;;21.10;44.40;;;;;;5096120;28;20024;-53
2022/04/15 08:06:38;;;;;;;44.28;20.83;;;21.30;46.00;;;;;;5095224;28;20477;-53
2022/04/15 08:09:04;;;;;;;34.50;18.73;;;21.30;44.70;;;;;;5096511;28;20054;-54
2022/04/15 08:11:30;;;;;;;40.17;19.27;;;21.40;43.70;;;;;;5096608;28;20046;-54
2022/04/15 08:13:57;;;;;;;35.42;17.05;;;21.70;43.10;;;;;;5096388;28;20039;-53
2022/04/15 08:16:27;;;;;;;38.80;16.73;;;21.60;42.20;;;;;;5096266;28;20043;-54
2022/04/15 08:18:56;;;;;;;40.08;16.60;;;22.10;43.00;;;;;;5095937;28;20605;-54
2022/04/15 08:21:23;;;;;;;33.40;14.40;;;22.70;41.30;;;;;;5095703;28;20035;-54
2022/04/15 08:23:49;;;;;;;32.78;14.27;;;22.80;39.00;;;;;;5095301;28;20024;-54
2022/04/15 08:26:15;;;;;;;30.38;13.55;;;23.40;38.70;;;;;;5095298;28;20020;-54
2022/04/15 08:28:44;;;;;;;39.60;15.90;;;23.80;37.60;;;;;;5095640;28;20024;-54
2022/04/15 08:31:11;;;;;;;35.70;14.27;;;23.80;36.20;;;;;;5092955;28;20051;-54
2022/04/15 08:33:37;;;;;;;25.80;11.20;;;23.70;35.10;;;;;;5093305;28;20031;-54
2022/04/15 08:36:05;;;;;;;24.83;10.10;;;23.90;33.90;;;;;;5094498;28;20036;-54
2022/04/15 08:38:30;;;;;;;31.58;11.82;;;24.20;33.50;;;;;;5095067;28;20035;-54
2022/04/15 08:40:58;;;;;;;26.90;11.25;;;24.10;32.70;;;;;;5095202;28;20028;-54
2022/04/15 08:43:25;;;;;;;20.98;10.70;;;24.40;32.80;;;;;;5094467;28;20470;-54
2022/04/15 08:45:52;;;;;;;27.65;11.40;;;24.50;32.20;;;;;;5085119;28;20275;-54
2022/04/15 08:48:19;;;;;;;24.80;12.07;;;24.70;32.00;;;;;;5074486;28;20505;-54
2022/04/15 08:50:45;;;;;;;23.10;11.63;;;24.60;31.80;;;;;;5082558;28;20127;-54
2022/04/15 08:53:11;;;;;;;25.92;11.77;;;24.80;33.20;;;;;;5094673;28;20111;-54
2022/04/15 08:55:37;;;;;;;24.10;10.85;;;25.00;31.60;;;;;;5094954;28;20066;-54
2022/04/15 08:58:03;;;;;;;20.08;10.82;;;25.10;32.20;;;;;;5094561;28;20024;-54
2022/04/15 09:00:30;;;;;;;27.65;12.02;;;25.00;31.30;;;;;;5095663;28;20051;-54
2022/04/15 09:02:56;;;;;;;22.88;10.23;;;25.40;30.90;;;;;;5094195;28;20491;-54
2022/04/15 09:05:25;;;;;;;23.25;12.55;;;26.20;31.40;;;;;;5094415;28;20355;-54
2022/04/15 09:08:11;;;;;;;22.20;10.30;;;26.70;29.80;;;;;;5094791;28;20080;-54
2022/04/15 09:10:40;;;;;;;18.85;10.48;;;26.70;30.40;;;;;;5093329;28;20020;-54
2022/04/15 09:13:07;;;;;;;19.35;10.30;;;26.60;29.30;;;;;;5094066;28;20036;-54
2022/04/15 09:15:33;;;;;;;19.70;9.25;;;26.80;29.20;;;;;;5093387;28;20043;-54
2022/04/15 09:18:00;;;;;;;19.55;9.75;;;26.20;29.10;;;;;;5093672;28;20040;-54
2022/04/15 09:20:33;;;;;;;17.85;9.30;;;26.60;30.10;;;;;;5094085;28;20052;-54
2022/04/15 09:23:09;;;;;;;23.23;9.38;;;26.50;29.10;;;;;;5073913;28;20040;-54
2022/04/15 09:25:36;;;;;;;35.20;11.57;;;26.60;27.40;;;;;;5082972;28;20035;-54
2022/04/15 09:28:02;;;;;;;22.73;9.65;;;27.20;28.70;;;;;;5094762;28;20021;-54
2022/04/15 09:30:36;;;;;;;15.25;7.85;;;27.50;29.30;;;;;;5094337;28;20028;-55
2022/04/15 09:33:03;;;;;;;16.23;7.72;;;27.50;28.30;;;;;;5091022;28;20020;-55
2022/04/15 09:35:29;;;;;;;29.50;10.48;;;27.60;27.50;;;;;;5094187;28;20073;-55
2022/04/15 09:38:03;;;;;;;14.35;6.68;;;27.50;28.10;;;;;;5093911;28;20020;-55
2022/04/15 09:40:35;;;;;;;14.55;6.38;;;27.20;26.80;;;;;;5086514;28;20063;-54
2022/04/15 09:43:06;;;;;;;18.00;7.38;;;27.50;27.80;;;;;;5093885;28;20051;-55
2022/04/15 09:45:37;;;;;;;16.23;6.80;;;28.20;28.00;;;;;;5093777;28;20030;-55
2022/04/15 09:48:09;;;;;;;10.38;5.25;;;28.10;26.20;;;;;;5093877;28;20107;-54
2022/04/15 09:50:44;;;;;;;12.75;7.28;;;28.00;26.20;;;;;;5093551;28;20123;-55
2022/04/15 09:53:13;;;;;;;16.25;7.18;;;27.90;25.90;;;;;;5093998;28;20477;-55
2022/04/15 09:55:41;;;;;;;10.77;5.45;;;28.20;26.40;;;;;;5093194;28;20385;-54
2022/04/15 09:58:15;;;;;;;13.90;7.60;;;28.50;26.50;;;;;;5093834;28;20071;-55
2022/04/15 10:00:48;;;;;;;17.17;6.30;;;29.10;25.70;;;;;;5091434;28;20488;-55
2022/04/15 10:03:28;;;;;;;14.43;6.32;;;29.10;25.70;;;;;;5093350;28;20081;-55
2022/04/15 10:05:58;;;;;;;26.10;8.00;;;29.10;24.70;;;;;;5094128;28;20446;-55
2022/04/15 10:08:25;;;;;;;25.23;8.10;;;29.80;26.40;;;;;;5092509;28;20024;-55
2022/04/15 10:10:52;;;;;;;12.60;5.82;;;30.70;26.00;;;;;;5093274;28;20029;-55
2022/04/15 10:13:20;;;;;;;13.35;5.68;;;30.60;25.40;;;;;;5093859;28;20114;-55
2022/04/15 10:15:49;;;;;;;22.25;7.35;;;30.20;24.60;;;;;;5094045;28;20032;-55
2022/04/15 10:18:15;;;;;;;13.00;5.75;;;30.50;24.80;;;;;;5093954;28;20037;-55
2022/04/15 10:20:42;;;;;;;21.00;6.78;;;30.50;22.90;;;;;;5093846;28;20039;-55
2022/04/15 10:23:13;;;;;;;14.48;6.25;;;29.90;23.50;;;;;;5093211;28;20040;-55
2022/04/15 10:25:43;;;;;;;16.40;7.53;;;30.50;25.60;;;;;;5093782;28;20036;-55
2022/04/15 10:28:16;;;;;;;17.13;8.15;;;30.50;23.90;;;;;;5094078;28;20059;-55
2022/04/15 10:30:54;;;;;;;18.67;7.30;;;30.20;24.30;;;;;;5093489;28;20382;-55
2022/04/15 10:33:30;;;;;;;32.30;8.68;;;29.70;24.40;;;;;;5090649;28;20600;-55
2022/04/15 10:36:09;;;;;;;17.75;7.97;;;29.80;24.20;;;;;;5093865;28;20028;-55
2022/04/15 10:38:35;;;;;;;14.15;6.30;;;29.80;25.00;;;;;;5092686;28;20086;-55
2022/04/15 10:41:19;;;;;;;13.98;6.40;;;30.20;24.50;;;;;;5093192;28;20024;-55
2022/04/15 10:43:58;;;;;;;32.92;9.10;;;30.10;24.80;;;;;;5093015;28;20050;-55
2022/04/15 10:46:31;;;;;;;18.48;7.68;;;29.80;25.10;;;;;;5093087;28;20024;-55
2022/04/15 10:49:00;;;;;;;20.77;8.20;;;30.10;25.00;;;;;;5095739;28;20405;-55
2022/04/15 10:51:33;;;;;;;15.35;6.90;;;30.50;24.70;;;;;;5097096;28;20028;-55
2022/04/15 10:54:38;;;;;;;25.13;8.25;;;30.30;23.30;;;;;;5097300;28;20073;-55
2022/04/15 10:57:11;;;;;;;23.58;7.65;;;30.50;24.40;;;;;;5086256;28;20040;-54
2022/04/15 11:02:32;;;;;;;16.63;7.05;;;30.60;24.50;;;;;;5097126;28;20100;-55
2022/04/15 11:05:02;;;;;;;14.13;7.20;;;30.40;24.30;;;;;;5097319;28;20119;-55
2022/04/15 11:07:40;;;;;;;16.70;7.77;;;29.80;24.90;;;;;;5096929;28;20031;-55
2022/04/15 11:10:17;;;;;;;31.92;9.10;;;30.10;25.80;;;;;;5096824;28;20260;-55
2022/04/15 11:12:43;;;;;;;14.07;6.22;;;30.00;25.40;;;;;;5096524;28;20553;-55
2022/04/15 11:15:09;;;;;;;33.97;8.35;;;30.10;25.10;;;;;;5096926;28;20036;-55
2022/04/15 11:17:41;;;;;;;19.20;6.68;;;30.10;23.40;;;;;;5074865;28;20052;-55
2022/04/15 11:20:08;;;;;;;23.95;8.18;;;29.80;23.80;;;;;;5076458;28;20046;-55
2022/04/15 11:22:41;;;;;;;24.00;7.68;;;30.20;24.80;;;;;;5076220;28;20025;-55
2022/04/15 11:25:09;;;;;;;15.45;6.55;;;30.50;24.80;;;;;;5076231;28;20032;-55
2022/04/15 11:27:39;;;;;;;28.02;7.75;;;30.60;23.10;;;;;;5076122;28;20109;-55
2022/04/15 11:30:14;;;;;;;11.55;5.38;;;31.00;24.50;;;;;;5075903;28;20382;-55
2022/04/15 11:32:51;;;;;;;13.23;5.13;;;30.90;23.90;;;;;;5075910;28;20035;-55
2022/04/15 11:35:32;;;;;;;14.65;5.60;;;30.90;25.30;;;;;;5076179;28;20037;-55
2022/04/15 11:38:03;;;;;;;12.20;5.03;;;31.10;24.50;;;;;;5076225;28;20036;-55
2022/04/15 11:40:34;;;;;;;21.05;4.95;;;30.80;22.80;;;;;;5075872;28;20025;-55
2022/04/15 11:43:07;;;;;;;10.88;4.30;;;30.70;23.70;;;;;;5076042;28;20070;-55
2022/04/15 11:45:33;;;;;;;9.93;5.28;;;31.10;23.00;;;;;;5075882;28;20024;-55
2022/04/15 11:48:15;;;;;;;18.52;5.22;;;31.30;22.90;;;;;;5075810;28;20108;-55
2022/04/15 11:50:41;;;;;;;11.70;4.95;;;31.70;24.00;;;;;;5075707;28;20040;-55
2022/04/15 11:53:07;;;;;;;8.90;3.90;;;31.90;23.70;;;;;;5076139;28;20052;-55
2022/04/15 11:55:45;;;;;;;9.27;4.28;;;32.20;23.90;;;;;;5075551;28;20110;-55
2022/04/15 11:58:12;;;;;;;7.93;4.07;;;32.10;24.10;;;;;;5075548;28;20402;-55
2022/04/15 12:00:39;;;;;;;21.75;4.70;;;32.30;24.80;;;;;;5076451;28;20032;-55
2022/04/15 12:03:06;;;;;;;29.67;5.95;;;32.10;22.60;;;;;;5075755;28;20031;-55
2022/04/15 12:05:32;;;;;;;13.43;3.75;;;32.10;23.20;;;;;;5075571;28;20033;-55
2022/04/15 12:07:58;;;;;;;20.20;5.20;;;32.30;24.10;;;;;;5075795;28;20037;-55
2022/04/15 12:10:24;;;;;;;10.98;4.43;;;32.40;24.30;;;;;;5075295;28;20025;-55
2022/04/15 12:12:52;;;;;;;10.00;3.85;;;32.40;22.80;;;;;;5075113;28;20034;-55
2022/04/15 12:15:25;;;;;;;6.47;3.55;;;32.50;22.80;;;;;;5075674;28;20088;-55
2022/04/15 12:17:52;;;;;;;12.15;4.78;;;32.60;22.30;;;;;;5091523;28;20322;-55
2022/04/15 12:20:19;;;;;;;9.15;3.30;;;32.50;21.80;;;;;;5095732;28;20104;-55
2022/04/15 12:22:45;;;;;;;8.43;3.47;;;32.30;22.80;;;;;;5077033;28;20017;-55
2022/04/15 12:25:19;;;;;;;8.02;3.72;;;32.60;22.80;;;;;;5095143;28;20217;-55
2022/04/15 12:27:46;;;;;;;15.55;5.95;;;32.60;24.40;;;;;;5095142;28;20469;-55
2022/04/15 12:30:14;;;;;;;12.40;4.65;;;32.60;24.20;;;;;;5095314;28;20045;-55
2022/04/15 12:32:40;;;;;;;10.00;4.32;;;32.60;24.90;;;;;;5094965;28;20028;-55
2022/04/15 12:35:09;;;;;;;10.93;4.60;;;32.40;22.90;;;;;;5095632;28;20034;-55
2022/04/15 12:37:36;;;;;;;13.93;4.90;;;32.30;23.20;;;;;;5095481;28;20028;-55
2022/04/15 12:40:29;;;;;;;15.10;4.93;;;31.90;23.70;;;;;;5094700;28;20034;-55
2022/04/15 12:42:55;;;;;;;11.20;4.50;;;32.30;23.40;;;;;;5095161;28;20039;-55